sensor_id;sensor_type;location;lat;lon;timestamp;temperature;humidity
43338;DHT22;28933;52.492;13.434;2023-05-10T00:01:46;14.20;67.20
43338;DHT22;28933;52.492;13.434;2023-05-10T00:04:12;14.20;67.40
43338;DHT22;28933;52.492;13.434;2023-05-10T00:06:37;14.20;67.50
43338;DHT22;28933;52.492;13.434;2023-05-10T00:09:03;14.20;67.60
43338;DHT22;28933;52.492;13.434;2023-05-10T00:11:29;14.10;67.80
43338;DHT22;28933;52.492;13.434;2023-05-10T00:13:54;14.10;67.90
43338;DHT22;28933;52.492;13.434;2023-05-10T00:16:20;14.00;67.90
43338;DHT22;28933;52.492;13.434;2023-05-10T00:18:46;14.00;68.10
43338;DHT22;28933;52.492;13.434;2023-05-10T00:21:11;14.00;68.30
43338;DHT22;28933;52.492;13.434;2023-05-10T00:23:37;13.90;68.30
43338;DHT22;28933;52.492;13.434;2023-05-10T00:26:03;13.90;68.40
43338;DHT22;28933;52.492;13.434;2023-05-10T00:28:29;13.90;68.60
43338;DHT22;28933;52.492;13.434;2023-05-10T00:30:54;13.80;68.70
43338;DHT22;28933;52.492;13.434;2023-05-10T00:33:20;13.80;68.80
43338;DHT22;28933;52.492;13.434;2023-05-10T00:35:46;13.80;68.90
43338;DHT22;28933;52.492;13.434;2023-05-10T00:38:12;13.70;69.00
43338;DHT22;28933;52.492;13.434;2023-05-10T00:40:37;13.70;69.10
43338;DHT22;28933;52.492;13.434;2023-05-10T00:43:03;13.70;69.40
43338;DHT22;28933;52.492;13.434;2023-05-10T00:45:30;13.60;69.40
43338;DHT22;28933;52.492;13.434;2023-05-10T00:47:59;13.60;69.60
43338;DHT22;28933;52.492;13.434;2023-05-10T00:50:25;13.60;69.80
43338;DHT22;28933;52.492;13.434;2023-05-10T00:52:51;13.60;69.80
43338;DHT22;28933;52.492;13.434;2023-05-10T00:55:18;13.50;69.80
43338;DHT22;28933;52.492;13.434;2023-05-10T00:57:43;13.50;70.00
43338;DHT22;28933;52.492;13.434;2023-05-10T01:00:10;13.50;70.10
43338;DHT22;28933;52.492;13.434;2023-05-10T01:02:36;13.40;70.20
43338;DHT22;28933;52.492;13.434;2023-05-10T01:05:02;13.40;70.20
43338;DHT22;28933;52.492;13.434;2023-05-10T01:07:31;13.40;70.40
43338;DHT22;28933;52.492;13.434;2023-05-10T01:09:57;13.40;70.60
43338;DHT22;28933;52.492;13.434;2023-05-10T01:12:23;13.30;70.50
43338;DHT22;28933;52.492;13.434;2023-05-10T01:14:49;13.20;70.70
43338;DHT22;28933;52.492;13.434;2023-05-10T01:17:15;13.20;70.80
43338;DHT22;28933;52.492;13.434;2023-05-10T01:19:41;13.20;70.90
43338;DHT22;28933;52.492;13.434;2023-05-10T01:31:03;13.10;71.40
43338;DHT22;28933;52.492;13.434;2023-05-10T01:38:49;12.90;71.40
43338;DHT22;28933;52.492;13.434;2023-05-10T01:41:29;12.90;71.80
43338;DHT22;28933;52.492;13.434;2023-05-10T01:46:46;12.90;72.10
43338;DHT22;28933;52.492;13.434;2023-05-10T01:49:21;12.90;72.20
43338;DHT22;28933;52.492;13.434;2023-05-10T01:51:51;12.80;72.30
43338;DHT22;28933;52.492;13.434;2023-05-10T01:54:21;12.80;72.40
43338;DHT22;28933;52.492;13.434;2023-05-10T01:56:52;12.70;72.50
43338;DHT22;28933;52.492;13.434;2023-05-10T01:59:21;12.70;72.70
43338;DHT22;28933;52.492;13.434;2023-05-10T02:01:48;12.70;72.80
43338;DHT22;28933;52.492;13.434;2023-05-10T02:04:17;12.70;72.90
43338;DHT22;28933;52.492;13.434;2023-05-10T02:06:43;12.70;73.20
43338;DHT22;28933;52.492;13.434;2023-05-10T02:09:11;12.70;73.20
43338;DHT22;28933;52.492;13.434;2023-05-10T02:11:42;12.60;73.20
43338;DHT22;28933;52.492;13.434;2023-05-10T02:14:09;12.60;73.40
43338;DHT22;28933;52.492;13.434;2023-05-10T02:16:36;12.60;73.50
43338;DHT22;28933;52.492;13.434;2023-05-10T02:19:03;12.60;73.60
43338;DHT22;28933;52.492;13.434;2023-05-10T02:21:30;12.60;73.70
43338;DHT22;28933;52.492;13.434;2023-05-10T02:23:57;12.50;73.80
43338;DHT22;28933;52.492;13.434;2023-05-10T02:26:24;12.50;73.90
43338;DHT22;28933;52.492;13.434;2023-05-10T02:28:51;12.50;74.20
43338;DHT22;28933;52.492;13.434;2023-05-10T02:31:19;12.50;74.20
43338;DHT22;28933;52.492;13.434;2023-05-10T02:33:46;12.40;74.20
43338;DHT22;28933;52.492;13.434;2023-05-10T02:36:12;12.40;74.40
43338;DHT22;28933;52.492;13.434;2023-05-10T02:38:39;12.40;74.60
43338;DHT22;28933;52.492;13.434;2023-05-10T02:41:08;12.40;74.60
43338;DHT22;28933;52.492;13.434;2023-05-10T02:43:36;12.30;74.70
43338;DHT22;28933;52.492;13.434;2023-05-10T02:46:03;12.30;74.70
43338;DHT22;28933;52.492;13.434;2023-05-10T02:48:29;12.30;74.90
43338;DHT22;28933;52.492;13.434;2023-05-10T02:50:56;12.30;74.90
43338;DHT22;28933;52.492;13.434;2023-05-10T02:53:31;12.30;75.00
43338;DHT22;28933;52.492;13.434;2023-05-10T02:56:00;12.20;75.20
43338;DHT22;28933;52.492;13.434;2023-05-10T02:58:27;12.30;75.20
43338;DHT22;28933;52.492;13.434;2023-05-10T03:00:52;12.20;75.20
43338;DHT22;28933;52.492;13.434;2023-05-10T03:03:19;12.20;75.20
43338;DHT22;28933;52.492;13.434;2023-05-10T03:05:45;12.20;75.40
43338;DHT22;28933;52.492;13.434;2023-05-10T03:08:11;12.20;75.40
43338;DHT22;28933;52.492;13.434;2023-05-10T03:10:45;12.10;75.50
43338;DHT22;28933;52.492;13.434;2023-05-10T03:16:04;12.00;75.60
43338;DHT22;28933;52.492;13.434;2023-05-10T03:18:56;12.00;75.80
43338;DHT22;28933;52.492;13.434;2023-05-10T03:21:28;12.00;75.70
43338;DHT22;28933;52.492;13.434;2023-05-10T03:24:07;12.00;75.90
43338;DHT22;28933;52.492;13.434;2023-05-10T03:26:33;12.00;76.10
43338;DHT22;28933;52.492;13.434;2023-05-10T03:28:59;12.00;76.00
43338;DHT22;28933;52.492;13.434;2023-05-10T03:31:25;12.00;76.10
43338;DHT22;28933;52.492;13.434;2023-05-10T03:33:52;11.90;76.20
43338;DHT22;28933;52.492;13.434;2023-05-10T03:36:18;11.90;76.30
43338;DHT22;28933;52.492;13.434;2023-05-10T03:38:44;11.90;76.40
43338;DHT22;28933;52.492;13.434;2023-05-10T03:41:10;12.00;76.50
43338;DHT22;28933;52.492;13.434;2023-05-10T03:43:35;11.90;76.50
43338;DHT22;28933;52.492;13.434;2023-05-10T03:46:05;11.90;76.50
43338;DHT22;28933;52.492;13.434;2023-05-10T03:48:32;11.90;76.70
43338;DHT22;28933;52.492;13.434;2023-05-10T03:50:57;11.90;76.70
43338;DHT22;28933;52.492;13.434;2023-05-10T03:53:23;12.00;76.80
43338;DHT22;28933;52.492;13.434;2023-05-10T03:55:49;11.90;76.80
43338;DHT22;28933;52.492;13.434;2023-05-10T03:58:14;11.90;76.80
43338;DHT22;28933;52.492;13.434;2023-05-10T04:00:40;12.00;77.00
43338;DHT22;28933;52.492;13.434;2023-05-10T04:03:09;12.00;77.20
43338;DHT22;28933;52.492;13.434;2023-05-10T04:05:35;12.00;77.10
43338;DHT22;28933;52.492;13.434;2023-05-10T04:08:01;12.00;77.10
43338;DHT22;28933;52.492;13.434;2023-05-10T04:10:27;12.00;77.20
43338;DHT22;28933;52.492;13.434;2023-05-10T04:12:53;12.00;77.30
43338;DHT22;28933;52.492;13.434;2023-05-10T04:15:19;12.00;77.30
43338;DHT22;28933;52.492;13.434;2023-05-10T04:17:44;12.00;77.50
43338;DHT22;28933;52.492;13.434;2023-05-10T04:20:11;12.00;77.50
43338;DHT22;28933;52.492;13.434;2023-05-10T04:22:36;12.00;77.40
43338;DHT22;28933;52.492;13.434;2023-05-10T04:25:02;12.00;77.40
43338;DHT22;28933;52.492;13.434;2023-05-10T04:27:28;12.10;77.50
43338;DHT22;28933;52.492;13.434;2023-05-10T04:29:54;12.10;77.50
43338;DHT22;28933;52.492;13.434;2023-05-10T04:32:19;12.10;77.50
43338;DHT22;28933;52.492;13.434;2023-05-10T04:34:45;12.10;77.50
43338;DHT22;28933;52.492;13.434;2023-05-10T04:37:11;12.20;77.60
43338;DHT22;28933;52.492;13.434;2023-05-10T04:39:37;12.20;77.50
43338;DHT22;28933;52.492;13.434;2023-05-10T04:42:03;12.20;77.50
43338;DHT22;28933;52.492;13.434;2023-05-10T04:44:28;12.30;77.60
43338;DHT22;28933;52.492;13.434;2023-05-10T04:46:55;12.30;78.00
43338;DHT22;28933;52.492;13.434;2023-05-10T04:49:20;12.40;77.50
43338;DHT22;28933;52.492;13.434;2023-05-10T04:51:47;12.40;77.50
43338;DHT22;28933;52.492;13.434;2023-05-10T04:54:12;12.40;77.40
43338;DHT22;28933;52.492;13.434;2023-05-10T04:56:38;12.50;77.40
43338;DHT22;28933;52.492;13.434;2023-05-10T04:59:03;12.50;77.40
43338;DHT22;28933;52.492;13.434;2023-05-10T05:01:29;12.50;77.20
43338;DHT22;28933;52.492;13.434;2023-05-10T05:03:55;12.50;77.20
43338;DHT22;28933;52.492;13.434;2023-05-10T05:06:20;12.60;77.20
43338;DHT22;28933;52.492;13.434;2023-05-10T05:08:46;12.60;77.10
43338;DHT22;28933;52.492;13.434;2023-05-10T05:11:12;12.70;77.20
43338;DHT22;28933;52.492;13.434;2023-05-10T05:13:38;12.70;77.10
43338;DHT22;28933;52.492;13.434;2023-05-10T05:16:05;12.80;77.10
43338;DHT22;28933;52.492;13.434;2023-05-10T05:18:31;12.90;77.20
43338;DHT22;28933;52.492;13.434;2023-05-10T05:20:56;12.90;77.00
43338;DHT22;28933;52.492;13.434;2023-05-10T05:23:22;13.00;76.90
43338;DHT22;28933;52.492;13.434;2023-05-10T05:25:51;13.00;77.00
43338;DHT22;28933;52.492;13.434;2023-05-10T05:28:18;13.10;77.00
43338;DHT22;28933;52.492;13.434;2023-05-10T05:30:43;13.20;77.00
43338;DHT22;28933;52.492;13.434;2023-05-10T05:33:09;13.20;76.80
43338;DHT22;28933;52.492;13.434;2023-05-10T05:35:35;13.30;76.80
43338;DHT22;28933;52.492;13.434;2023-05-10T05:38:00;13.30;76.70
43338;DHT22;28933;52.492;13.434;2023-05-10T05:40:26;13.40;76.70
43338;DHT22;28933;52.492;13.434;2023-05-10T05:42:52;13.50;76.70
43338;DHT22;28933;52.492;13.434;2023-05-10T05:45:17;13.50;76.70
43338;DHT22;28933;52.492;13.434;2023-05-10T05:47:43;13.70;76.60
43338;DHT22;28933;52.492;13.434;2023-05-10T05:50:09;13.70;76.40
43338;DHT22;28933;52.492;13.434;2023-05-10T05:52:35;13.80;76.30
43338;DHT22;28933;52.492;13.434;2023-05-10T05:55:01;13.80;76.00
43338;DHT22;28933;52.492;13.434;2023-05-10T05:57:27;13.90;76.00
43338;DHT22;28933;52.492;13.434;2023-05-10T05:59:52;14.00;76.10
43338;DHT22;28933;52.492;13.434;2023-05-10T06:02:18;14.10;76.00
43338;DHT22;28933;52.492;13.434;2023-05-10T06:04:43;14.20;76.00
43338;DHT22;28933;52.492;13.434;2023-05-10T06:07:09;14.20;75.70
43338;DHT22;28933;52.492;13.434;2023-05-10T06:09:35;14.30;76.00
43338;DHT22;28933;52.492;13.434;2023-05-10T06:12:01;14.40;75.80
43338;DHT22;28933;52.492;13.434;2023-05-10T06:14:26;14.50;75.60
43338;DHT22;28933;52.492;13.434;2023-05-10T06:16:52;14.50;75.30
43338;DHT22;28933;52.492;13.434;2023-05-10T06:19:18;14.60;75.20
43338;DHT22;28933;52.492;13.434;2023-05-10T06:21:44;14.70;75.30
43338;DHT22;28933;52.492;13.434;2023-05-10T06:24:09;14.70;75.40
43338;DHT22;28933;52.492;13.434;2023-05-10T06:26:35;14.80;74.90
43338;DHT22;28933;52.492;13.434;2023-05-10T06:29:01;14.90;74.90
43338;DHT22;28933;52.492;13.434;2023-05-10T06:31:26;14.90;74.50
43338;DHT22;28933;52.492;13.434;2023-05-10T06:33:52;15.00;74.60
43338;DHT22;28933;52.492;13.434;2023-05-10T06:36:18;15.10;74.70
43338;DHT22;28933;52.492;13.434;2023-05-10T06:38:43;15.20;74.40
43338;DHT22;28933;52.492;13.434;2023-05-10T06:41:09;15.20;74.40
43338;DHT22;28933;52.492;13.434;2023-05-10T06:43:35;15.30;74.30
43338;DHT22;28933;52.492;13.434;2023-05-10T06:46:01;15.30;74.10
43338;DHT22;28933;52.492;13.434;2023-05-10T06:48:26;15.40;74.10
43338;DHT22;28933;52.492;13.434;2023-05-10T06:50:52;15.50;74.00
43338;DHT22;28933;52.492;13.434;2023-05-10T06:53:17;15.50;74.10
43338;DHT22;28933;52.492;13.434;2023-05-10T06:55:43;15.60;73.90
43338;DHT22;28933;52.492;13.434;2023-05-10T06:58:09;15.60;73.60
43338;DHT22;28933;52.492;13.434;2023-05-10T07:00:34;15.80;73.60
43338;DHT22;28933;52.492;13.434;2023-05-10T07:03:00;15.80;73.40
43338;DHT22;28933;52.492;13.434;2023-05-10T07:05:26;15.90;73.40
43338;DHT22;28933;52.492;13.434;2023-05-10T07:07:53;15.90;73.90
43338;DHT22;28933;52.492;13.434;2023-05-10T07:10:18;16.00;73.10
43338;DHT22;28933;52.492;13.434;2023-05-10T07:12:44;16.00;73.00
43338;DHT22;28933;52.492;13.434;2023-05-10T07:15:10;16.10;72.90
43338;DHT22;28933;52.492;13.434;2023-05-10T07:17:35;16.20;72.70
43338;DHT22;28933;52.492;13.434;2023-05-10T07:20:01;16.20;72.60
43338;DHT22;28933;52.492;13.434;2023-05-10T07:22:27;16.20;72.50
43338;DHT22;28933;52.492;13.434;2023-05-10T07:24:53;16.30;72.60
43338;DHT22;28933;52.492;13.434;2023-05-10T07:27:18;16.30;72.50
43338;DHT22;28933;52.492;13.434;2023-05-10T07:29:44;16.40;72.50
43338;DHT22;28933;52.492;13.434;2023-05-10T07:32:10;16.50;72.20
43338;DHT22;28933;52.492;13.434;2023-05-10T07:34:35;16.50;72.10
43338;DHT22;28933;52.492;13.434;2023-05-10T07:37:01;16.60;72.10
43338;DHT22;28933;52.492;13.434;2023-05-10T07:39:27;16.70;71.90
43338;DHT22;28933;52.492;13.434;2023-05-10T07:41:54;16.70;71.90
43338;DHT22;28933;52.492;13.434;2023-05-10T07:44:20;16.80;71.80
43338;DHT22;28933;52.492;13.434;2023-05-10T07:46:46;16.90;71.60
43338;DHT22;28933;52.492;13.434;2023-05-10T07:49:11;17.00;71.70
43338;DHT22;28933;52.492;13.434;2023-05-10T07:51:37;17.00;71.60
43338;DHT22;28933;52.492;13.434;2023-05-10T07:54:03;17.10;71.30
43338;DHT22;28933;52.492;13.434;2023-05-10T07:56:30;17.10;71.50
43338;DHT22;28933;52.492;13.434;2023-05-10T07:59:01;17.20;71.10
43338;DHT22;28933;52.492;13.434;2023-05-10T08:01:30;17.20;71.20
43338;DHT22;28933;52.492;13.434;2023-05-10T08:03:56;17.30;71.00
43338;DHT22;28933;52.492;13.434;2023-05-10T08:06:22;17.40;70.60
43338;DHT22;28933;52.492;13.434;2023-05-10T08:08:48;17.40;70.60
43338;DHT22;28933;52.492;13.434;2023-05-10T08:11:20;17.50;70.60
43338;DHT22;28933;52.492;13.434;2023-05-10T08:13:47;17.60;70.40
43338;DHT22;28933;52.492;13.434;2023-05-10T08:16:13;17.70;70.00
43338;DHT22;28933;52.492;13.434;2023-05-10T08:18:39;17.70;69.90
43338;DHT22;28933;52.492;13.434;2023-05-10T08:21:05;17.80;69.90
43338;DHT22;28933;52.492;13.434;2023-05-10T08:23:31;17.80;69.30
43338;DHT22;28933;52.492;13.434;2023-05-10T08:25:56;17.90;69.00
43338;DHT22;28933;52.492;13.434;2023-05-10T08:28:22;17.90;68.50
43338;DHT22;28933;52.492;13.434;2023-05-10T08:30:49;18.00;68.90
43338;DHT22;28933;52.492;13.434;2023-05-10T08:33:15;18.10;69.30
43338;DHT22;28933;52.492;13.434;2023-05-10T08:35:41;18.10;69.40
43338;DHT22;28933;52.492;13.434;2023-05-10T08:38:06;18.20;69.20
43338;DHT22;28933;52.492;13.434;2023-05-10T08:40:32;18.30;68.80
43338;DHT22;28933;52.492;13.434;2023-05-10T08:43:11;18.40;68.90
43338;DHT22;28933;52.492;13.434;2023-05-10T08:45:42;18.40;68.80
43338;DHT22;28933;52.492;13.434;2023-05-10T08:48:09;18.50;68.70
43338;DHT22;28933;52.492;13.434;2023-05-10T08:50:36;18.60;68.60
43338;DHT22;28933;52.492;13.434;2023-05-10T08:53:05;18.70;68.60
43338;DHT22;28933;52.492;13.434;2023-05-10T08:55:32;18.70;67.90
43338;DHT22;28933;52.492;13.434;2023-05-10T08:57:59;18.70;67.70
43338;DHT22;28933;52.492;13.434;2023-05-10T09:00:25;18.80;67.50
43338;DHT22;28933;52.492;13.434;2023-05-10T09:02:51;18.90;67.50
43338;DHT22;28933;52.492;13.434;2023-05-10T09:05:17;18.90;67.60
43338;DHT22;28933;52.492;13.434;2023-05-10T09:07:43;19.00;67.70
43338;DHT22;28933;52.492;13.434;2023-05-10T09:10:11;19.10;67.50
43338;DHT22;28933;52.492;13.434;2023-05-10T09:12:37;19.10;67.70
43338;DHT22;28933;52.492;13.434;2023-05-10T09:15:04;19.20;67.40
43338;DHT22;28933;52.492;13.434;2023-05-10T09:17:30;19.30;67.00
43338;DHT22;28933;52.492;13.434;2023-05-10T09:20:03;19.30;67.10
43338;DHT22;28933;52.492;13.434;2023-05-10T09:22:33;19.40;67.00
43338;DHT22;28933;52.492;13.434;2023-05-10T09:27:30;19.50;66.70
43338;DHT22;28933;52.492;13.434;2023-05-10T09:29:56;19.60;66.70
43338;DHT22;28933;52.492;13.434;2023-05-10T09:32:36;19.70;66.40
43338;DHT22;28933;52.492;13.434;2023-05-10T09:35:13;19.70;66.00
43338;DHT22;28933;52.492;13.434;2023-05-10T09:37:40;19.80;66.00
43338;DHT22;28933;52.492;13.434;2023-05-10T09:40:08;19.80;65.70
43338;DHT22;28933;52.492;13.434;2023-05-10T09:42:36;19.90;65.50
43338;DHT22;28933;52.492;13.434;2023-05-10T09:45:06;19.90;65.20
43338;DHT22;28933;52.492;13.434;2023-05-10T09:47:35;20.00;65.30
43338;DHT22;28933;52.492;13.434;2023-05-10T09:50:02;20.10;65.40
43338;DHT22;28933;52.492;13.434;2023-05-10T09:52:53;20.10;65.20
43338;DHT22;28933;52.492;13.434;2023-05-10T09:55:23;20.20;65.40
43338;DHT22;28933;52.492;13.434;2023-05-10T09:57:59;20.30;65.30
43338;DHT22;28933;52.492;13.434;2023-05-10T10:00:27;20.30;64.90
43338;DHT22;28933;52.492;13.434;2023-05-10T10:02:58;20.40;64.60
43338;DHT22;28933;52.492;13.434;2023-05-10T10:05:33;20.40;64.30
43338;DHT22;28933;52.492;13.434;2023-05-10T10:08:00;20.40;64.30
43338;DHT22;28933;52.492;13.434;2023-05-10T10:10:26;20.50;64.00
43338;DHT22;28933;52.492;13.434;2023-05-10T10:12:52;20.50;64.00
43338;DHT22;28933;52.492;13.434;2023-05-10T10:15:19;20.50;64.00
43338;DHT22;28933;52.492;13.434;2023-05-10T10:17:45;20.60;64.10
43338;DHT22;28933;52.492;13.434;2023-05-10T10:20:12;20.60;64.20
43338;DHT22;28933;52.492;13.434;2023-05-10T10:22:43;20.70;63.70
43338;DHT22;28933;52.492;13.434;2023-05-10T10:25:11;20.80;63.20
43338;DHT22;28933;52.492;13.434;2023-05-10T10:30:41;20.90;63.40
43338;DHT22;28933;52.492;13.434;2023-05-10T10:33:39;21.00;63.10
43338;DHT22;28933;52.492;13.434;2023-05-10T10:36:05;21.00;62.90
43338;DHT22;28933;52.492;13.434;2023-05-10T10:38:58;21.10;62.70
43338;DHT22;28933;52.492;13.434;2023-05-10T10:41:36;21.10;62.70
43338;DHT22;28933;52.492;13.434;2023-05-10T10:47:10;21.20;62.20
43338;DHT22;28933;52.492;13.434;2023-05-10T10:50:06;21.20;62.00
43338;DHT22;28933;52.492;13.434;2023-05-10T10:52:40;21.30;62.30
43338;DHT22;28933;52.492;13.434;2023-05-10T11:03:12;21.40;62.00
43338;DHT22;28933;52.492;13.434;2023-05-10T11:05:50;21.50;62.40
43338;DHT22;28933;52.492;13.434;2023-05-10T11:08:30;21.40;61.70
43338;DHT22;28933;52.492;13.434;2023-05-10T11:13:30;21.60;61.60
43338;DHT22;28933;52.492;13.434;2023-05-10T11:15:56;21.70;61.10
43338;DHT22;28933;52.492;13.434;2023-05-10T11:20:56;21.70;61.00
43338;DHT22;28933;52.492;13.434;2023-05-10T11:23:22;21.80;61.10
43338;DHT22;28933;52.492;13.434;2023-05-10T11:25:48;21.80;61.20
43338;DHT22;28933;52.492;13.434;2023-05-10T11:28:16;21.90;60.60
43338;DHT22;28933;52.492;13.434;2023-05-10T11:30:43;21.90;60.60
43338;DHT22;28933;52.492;13.434;2023-05-10T11:33:14;22.00;60.30
43338;DHT22;28933;52.492;13.434;2023-05-10T11:35:40;22.00;60.50
43338;DHT22;28933;52.492;13.434;2023-05-10T11:38:10;22.10;60.60
43338;DHT22;28933;52.492;13.434;2023-05-10T11:40:36;22.20;60.80
43338;DHT22;28933;52.492;13.434;2023-05-10T11:43:03;22.30;60.90
43338;DHT22;28933;52.492;13.434;2023-05-10T11:45:32;22.30;60.60
43338;DHT22;28933;52.492;13.434;2023-05-10T11:47:58;22.30;60.50
43338;DHT22;28933;52.492;13.434;2023-05-10T11:50:24;22.40;59.60
43338;DHT22;28933;52.492;13.434;2023-05-10T11:52:55;22.40;59.50
43338;DHT22;28933;52.492;13.434;2023-05-10T11:55:21;22.40;58.90
43338;DHT22;28933;52.492;13.434;2023-05-10T11:57:46;22.40;58.60
43338;DHT22;28933;52.492;13.434;2023-05-10T12:00:15;22.50;58.70
43338;DHT22;28933;52.492;13.434;2023-05-10T12:02:41;22.50;58.30
43338;DHT22;28933;52.492;13.434;2023-05-10T12:05:08;22.50;58.60
43338;DHT22;28933;52.492;13.434;2023-05-10T12:07:34;22.60;58.10
43338;DHT22;28933;52.492;13.434;2023-05-10T12:10:07;22.60;57.80
43338;DHT22;28933;52.492;13.434;2023-05-10T12:12:41;22.60;57.50
43338;DHT22;28933;52.492;13.434;2023-05-10T12:15:12;22.60;57.50
43338;DHT22;28933;52.492;13.434;2023-05-10T12:17:38;22.60;57.20
43338;DHT22;28933;52.492;13.434;2023-05-10T12:20:23;22.70;57.60
43338;DHT22;28933;52.492;13.434;2023-05-10T12:22:51;22.70;57.80
43338;DHT22;28933;52.492;13.434;2023-05-10T12:25:22;22.80;58.10
43338;DHT22;28933;52.492;13.434;2023-05-10T12:27:55;22.90;57.90
43338;DHT22;28933;52.492;13.434;2023-05-10T12:30:26;23.00;57.50
43338;DHT22;28933;52.492;13.434;2023-05-10T12:32:52;23.00;56.90
43338;DHT22;28933;52.492;13.434;2023-05-10T12:35:19;23.10;56.80
43338;DHT22;28933;52.492;13.434;2023-05-10T12:37:50;23.10;56.60
43338;DHT22;28933;52.492;13.434;2023-05-10T12:40:16;23.20;56.90
43338;DHT22;28933;52.492;13.434;2023-05-10T12:42:42;23.20;56.80
43338;DHT22;28933;52.492;13.434;2023-05-10T12:45:16;23.30;57.00
43338;DHT22;28933;52.492;13.434;2023-05-10T12:47:43;23.40;56.70
43338;DHT22;28933;52.492;13.434;2023-05-10T12:50:09;23.50;56.70
43338;DHT22;28933;52.492;13.434;2023-05-10T12:52:35;23.50;56.50
43338;DHT22;28933;52.492;13.434;2023-05-10T12:55:01;23.60;56.30
43338;DHT22;28933;52.492;13.434;2023-05-10T12:57:27;23.70;56.10
43338;DHT22;28933;52.492;13.434;2023-05-10T12:59:54;23.70;55.50
43338;DHT22;28933;52.492;13.434;2023-05-10T13:02:20;23.80;55.20
43338;DHT22;28933;52.492;13.434;2023-05-10T13:04:47;23.80;55.10
43338;DHT22;28933;52.492;13.434;2023-05-10T13:07:13;23.90;55.00
43338;DHT22;28933;52.492;13.434;2023-05-10T13:09:39;23.90;55.20
43338;DHT22;28933;52.492;13.434;2023-05-10T13:12:05;24.00;55.10
43338;DHT22;28933;52.492;13.434;2023-05-10T13:14:31;24.00;55.20
43338;DHT22;28933;52.492;13.434;2023-05-10T13:16:57;24.10;54.50
43338;DHT22;28933;52.492;13.434;2023-05-10T13:19:22;24.10;54.60
43338;DHT22;28933;52.492;13.434;2023-05-10T13:21:48;24.00;54.50
43338;DHT22;28933;52.492;13.434;2023-05-10T13:24:14;24.00;54.40
43338;DHT22;28933;52.492;13.434;2023-05-10T13:26:40;24.10;54.60
43338;DHT22;28933;52.492;13.434;2023-05-10T13:29:06;24.10;54.50
43338;DHT22;28933;52.492;13.434;2023-05-10T13:31:32;24.20;54.50
43338;DHT22;28933;52.492;13.434;2023-05-10T13:33:57;24.30;54.30
43338;DHT22;28933;52.492;13.434;2023-05-10T13:36:23;24.30;54.40
43338;DHT22;28933;52.492;13.434;2023-05-10T13:38:49;24.40;53.90
43338;DHT22;28933;52.492;13.434;2023-05-10T13:41:14;24.50;53.50
43338;DHT22;28933;52.492;13.434;2023-05-10T13:43:40;24.60;53.50
43338;DHT22;28933;52.492;13.434;2023-05-10T13:46:05;24.60;52.90
43338;DHT22;28933;52.492;13.434;2023-05-10T13:48:31;24.70;52.90
43338;DHT22;28933;52.492;13.434;2023-05-10T13:50:57;24.70;52.60
43338;DHT22;28933;52.492;13.434;2023-05-10T13:53:22;24.70;52.70
43338;DHT22;28933;52.492;13.434;2023-05-10T13:55:48;24.70;52.70
43338;DHT22;28933;52.492;13.434;2023-05-10T13:58:14;24.80;52.60
43338;DHT22;28933;52.492;13.434;2023-05-10T14:00:40;24.90;52.10
43338;DHT22;28933;52.492;13.434;2023-05-10T14:03:05;24.90;51.50
43338;DHT22;28933;52.492;13.434;2023-05-10T14:05:32;25.00;51.40
43338;DHT22;28933;52.492;13.434;2023-05-10T14:07:58;25.10;51.30
43338;DHT22;28933;52.492;13.434;2023-05-10T14:10:23;25.10;51.30
43338;DHT22;28933;52.492;13.434;2023-05-10T14:12:49;25.20;51.30
43338;DHT22;28933;52.492;13.434;2023-05-10T14:15:15;25.30;51.10
43338;DHT22;28933;52.492;13.434;2023-05-10T14:17:41;25.30;50.60
43338;DHT22;28933;52.492;13.434;2023-05-10T14:20:07;25.30;50.50
43338;DHT22;28933;52.492;13.434;2023-05-10T14:22:33;25.40;50.10
43338;DHT22;28933;52.492;13.434;2023-05-10T14:24:58;25.50;50.00
43338;DHT22;28933;52.492;13.434;2023-05-10T14:27:24;25.60;49.80
43338;DHT22;28933;52.492;13.434;2023-05-10T14:29:49;25.60;49.30
43338;DHT22;28933;52.492;13.434;2023-05-10T14:32:15;25.70;49.70
43338;DHT22;28933;52.492;13.434;2023-05-10T14:34:41;25.80;49.70
43338;DHT22;28933;52.492;13.434;2023-05-10T14:37:06;25.80;49.40
43338;DHT22;28933;52.492;13.434;2023-05-10T14:39:32;25.80;48.80
43338;DHT22;28933;52.492;13.434;2023-05-10T14:41:58;25.90;48.60
43338;DHT22;28933;52.492;13.434;2023-05-10T14:44:24;25.90;48.10
43338;DHT22;28933;52.492;13.434;2023-05-10T14:46:50;25.90;48.10
43338;DHT22;28933;52.492;13.434;2023-05-10T14:49:16;25.90;48.10
43338;DHT22;28933;52.492;13.434;2023-05-10T14:51:41;25.90;48.20
43338;DHT22;28933;52.492;13.434;2023-05-10T14:54:07;26.00;48.40
43338;DHT22;28933;52.492;13.434;2023-05-10T14:56:32;25.90;48.10
43338;DHT22;28933;52.492;13.434;2023-05-10T14:58:58;25.90;48.30
43338;DHT22;28933;52.492;13.434;2023-05-10T15:01:25;26.00;47.90
43338;DHT22;28933;52.492;13.434;2023-05-10T15:03:51;26.00;48.10
43338;DHT22;28933;52.492;13.434;2023-05-10T15:06:16;26.00;48.10
43338;DHT22;28933;52.492;13.434;2023-05-10T15:08:42;26.00;48.50
43338;DHT22;28933;52.492;13.434;2023-05-10T15:11:08;26.10;48.40
43338;DHT22;28933;52.492;13.434;2023-05-10T15:13:34;26.00;47.90
43338;DHT22;28933;52.492;13.434;2023-05-10T15:15:59;25.90;48.00
43338;DHT22;28933;52.492;13.434;2023-05-10T15:18:25;25.90;48.20
43338;DHT22;28933;52.492;13.434;2023-05-10T15:20:51;25.80;48.60
43338;DHT22;28933;52.492;13.434;2023-05-10T15:23:17;25.70;48.40
43338;DHT22;28933;52.492;13.434;2023-05-10T15:25:42;25.60;48.50
43338;DHT22;28933;52.492;13.434;2023-05-10T15:28:08;25.40;48.60
43338;DHT22;28933;52.492;13.434;2023-05-10T15:30:34;25.30;49.10
43338;DHT22;28933;52.492;13.434;2023-05-10T15:32:59;25.20;48.50
43338;DHT22;28933;52.492;13.434;2023-05-10T15:35:26;25.10;48.80
43338;DHT22;28933;52.492;13.434;2023-05-10T15:37:51;25.00;48.60
43338;DHT22;28933;52.492;13.434;2023-05-10T15:40:17;24.80;48.90
43338;DHT22;28933;52.492;13.434;2023-05-10T15:42:43;24.70;49.30
43338;DHT22;28933;52.492;13.434;2023-05-10T15:45:09;24.60;49.40
43338;DHT22;28933;52.492;13.434;2023-05-10T15:47:36;24.60;49.60
43338;DHT22;28933;52.492;13.434;2023-05-10T15:50:01;24.50;49.70
43338;DHT22;28933;52.492;13.434;2023-05-10T15:52:27;24.50;50.40
43338;DHT22;28933;52.492;13.434;2023-05-10T15:54:53;24.40;50.40
43338;DHT22;28933;52.492;13.434;2023-05-10T15:57:19;24.50;50.40